sensor_id;sensor_type;location;lat;lon;timestamp;pressure;altitude;pressure_sealevel;temperature;humidity
35507;BME280;36461;52.018;21.036;2022-07-09T00:02:21;100852.97;;;11.45;100.00
35507;BME280;36461;52.018;21.036;2022-07-09T00:04:47;100849.38;;;11.49;100.00
35507;BME280;36461;52.018;21.036;2022-07-09T00:07:14;100841.41;;;11.55;100.00
35507;BME280;36461;52.018;21.036;2022-07-09T00:09:40;100841.37;;;11.56;100.00
35507;BME280;36461;52.018;21.036;2022-07-09T00:12:08;100841.84;;;11.54;100.00
35507;BME280;36461;52.018;21.036;2022-07-09T00:14:35;100843.70;;;11.51;100.00
35507;BME280;36461;52.018;21.036;2022-07-09T00:17:02;100849.33;;;11.50;100.00
35507;BME280;36461;52.018;21.036;2022-07-09T00:19:29;100844.91;;;11.54;100.00
35507;BME280;36461;52.018;21.036;2022-07-09T00:21:56;100843.97;;;11.56;100.00
35507;BME280;36461;52.018;21.036;2022-07-09T00:24:22;100843.77;;;11.63;100.00
35507;BME280;36461;52.018;21.036;2022-07-09T00:26:49;100840.06;;;11.71;100.00
35507;BME280;36461;52.018;21.036;2022-07-09T00:29:15;100845.52;;;11.77;100.00
35507;BME280;36461;52.018;21.036;2022-07-09T00:31:42;100845.83;;;11.81;100.00
35507;BME280;36461;52.018;21.036;2022-07-09T00:34:08;100844.41;;;11.86;100.00
35507;BME280;36461;52.018;21.036;2022-07-09T00:36:35;100843.06;;;11.87;100.00
35507;BME280;36461;52.018;21.036;2022-07-09T00:39:02;100846.07;;;11.88;100.00
35507;BME280;36461;52.018;21.036;2022-07-09T00:41:28;100850.28;;;11.92;100.00
35507;BME280;36461;52.018;21.036;2022-07-09T00:43:56;100842.02;;;11.93;100.00
35507;BME280;36461;52.018;21.036;2022-07-09T00:46:22;100841.89;;;11.98;100.00
35507;BME280;36461;52.018;21.036;2022-07-09T00:48:49;100833.91;;;12.04;100.00
35507;BME280;36461;52.018;21.036;2022-07-09T00:51:17;100840.23;;;12.10;100.00
35507;BME280;36461;52.018;21.036;2022-07-09T00:53:45;100838.36;;;12.14;100.00
35507;BME280;36461;52.018;21.036;2022-07-09T00:56:14;100835.63;;;12.18;100.00
35507;BME280;36461;52.018;21.036;2022-07-09T00:58:44;100833.23;;;12.25;100.00
35507;BME280;36461;52.018;21.036;2022-07-09T01:01:11;100833.23;;;12.25;100.00
35507;BME280;36461;52.018;21.036;2022-07-09T01:03:38;100829.62;;;12.30;100.00
35507;BME280;36461;52.018;21.036;2022-07-09T01:06:05;100825.66;;;12.31;100.00
35507;BME280;36461;52.018;21.036;2022-07-09T01:08:32;100825.64;;;12.33;100.00
35507;BME280;36461;52.018;21.036;2022-07-09T01:11:00;100825.17;;;12.33;100.00
35507;BME280;36461;52.018;21.036;2022-07-09T01:13:27;100818.15;;;12.35;100.00
35507;BME280;36461;52.018;21.036;2022-07-09T01:15:53;100821.41;;;12.42;100.00
35507;BME280;36461;52.018;21.036;2022-07-09T01:18:20;100822.11;;;12.47;100.00
35507;BME280;36461;52.018;21.036;2022-07-09T01:20:46;100821.56;;;12.51;100.00
35507;BME280;36461;52.018;21.036;2022-07-09T01:23:13;100822.70;;;12.55;100.00
35507;BME280;36461;52.018;21.036;2022-07-09T01:25:41;100820.97;;;12.56;100.00
35507;BME280;36461;52.018;21.036;2022-07-09T01:28:12;100819.09;;;12.59;100.00
35507;BME280;36461;52.018;21.036;2022-07-09T01:30:41;100814.64;;;12.63;100.00
35507;BME280;36461;52.018;21.036;2022-07-09T01:33:10;100822.69;;;12.69;100.00
35507;BME280;36461;52.018;21.036;2022-07-09T01:35:39;100822.69;;;12.69;100.00
35507;BME280;36461;52.018;21.036;2022-07-09T01:38:05;100816.93;;;12.72;100.00
35507;BME280;36461;52.018;21.036;2022-07-09T01:40:33;100818.09;;;12.77;100.00
35507;BME280;36461;52.018;21.036;2022-07-09T01:43:00;100817.92;;;12.82;100.00
35507;BME280;36461;52.018;21.036;2022-07-09T01:45:26;100816.50;;;12.85;100.00
35507;BME280;36461;52.018;21.036;2022-07-09T01:47:54;100813.69;;;12.91;100.00
35507;BME280;36461;52.018;21.036;2022-07-09T01:50:20;100806.66;;;12.93;100.00
35507;BME280;36461;52.018;21.036;2022-07-09T01:52:47;100806.22;;;12.93;100.00
35507;BME280;36461;52.018;21.036;2022-07-09T01:55:14;100810.85;;;12.97;100.00
35507;BME280;36461;52.018;21.036;2022-07-09T01:57:41;100802.05;;;13.01;100.00
35507;BME280;36461;52.018;21.036;2022-07-09T02:00:08;100805.38;;;13.05;100.00
35507;BME280;36461;52.018;21.036;2022-07-09T02:02:38;100809.97;;;13.10;100.00
35507;BME280;36461;52.018;21.036;2022-07-09T02:05:07;100798.09;;;13.15;100.00
35507;BME280;36461;52.018;21.036;2022-07-09T02:07:34;100798.09;;;13.15;100.00
35507;BME280;36461;52.018;21.036;2022-07-09T02:10:02;100807.53;;;13.17;100.00
35507;BME280;36461;52.018;21.036;2022-07-09T02:12:29;100804.92;;;13.17;100.00
35507;BME280;36461;52.018;21.036;2022-07-09T02:14:56;100796.73;;;13.16;100.00
35507;BME280;36461;52.018;21.036;2022-07-09T02:17:23;100801.83;;;13.19;100.00
35507;BME280;36461;52.018;21.036;2022-07-09T02:19:50;100796.05;;;13.23;100.00
35507;BME280;36461;52.018;21.036;2022-07-09T02:22:17;100798.54;;;13.26;100.00
35507;BME280;36461;52.018;21.036;2022-07-09T02:24:44;100798.08;;;13.26;100.00
35507;BME280;36461;52.018;21.036;2022-07-09T02:27:10;100812.41;;;13.26;100.00
35507;BME280;36461;52.018;21.036;2022-07-09T02:29:37;100803.69;;;13.28;100.00
35507;BME280;36461;52.018;21.036;2022-07-09T02:32:04;100800.80;;;13.23;100.00
35507;BME280;36461;52.018;21.036;2022-07-09T02:34:32;100796.00;;;13.24;100.00
35507;BME280;36461;52.018;21.036;2022-07-09T02:36:59;100795.19;;;13.22;100.00
35507;BME280;36461;52.018;21.036;2022-07-09T02:39:25;100798.38;;;13.19;100.00
35507;BME280;36461;52.018;21.036;2022-07-09T02:41:52;100798.59;;;13.13;100.00
35507;BME280;36461;52.018;21.036;2022-07-09T02:44:18;100802.62;;;13.09;100.00
35507;BME280;36461;52.018;21.036;2022-07-09T02:46:44;100803.78;;;13.01;100.00
35507;BME280;36461;52.018;21.036;2022-07-09T02:49:11;100799.24;;;12.94;100.00
35507;BME280;36461;52.018;21.036;2022-07-09T02:51:37;100796.34;;;12.90;100.00
35507;BME280;36461;52.018;21.036;2022-07-09T02:54:04;100792.56;;;12.87;100.00
35507;BME280;36461;52.018;21.036;2022-07-09T02:56:31;100795.86;;;12.92;100.00
35507;BME280;36461;52.018;21.036;2022-07-09T02:58:58;100795.86;;;12.92;100.00
35507;BME280;36461;52.018;21.036;2022-07-09T03:01:25;100800.05;;;12.96;100.00
35507;BME280;36461;52.018;21.036;2022-07-09T03:03:52;100792.67;;;12.96;100.00
35507;BME280;36461;52.018;21.036;2022-07-09T03:06:20;100786.97;;;12.98;100.00
35507;BME280;36461;52.018;21.036;2022-07-09T03:08:47;100788.82;;;12.94;100.00
35507;BME280;36461;52.018;21.036;2022-07-09T03:11:14;100784.22;;;12.89;100.00
35507;BME280;36461;52.018;21.036;2022-07-09T03:13:41;100768.59;;;12.77;100.00
35507;BME280;36461;52.018;21.036;2022-07-09T03:16:08;100784.22;;;12.89;100.00
35507;BME280;36461;52.018;21.036;2022-07-09T03:18:34;100782.57;;;12.86;100.00
35507;BME280;36461;52.018;21.036;2022-07-09T03:21:01;100776.70;;;12.81;100.00
35507;BME280;36461;52.018;21.036;2022-07-09T03:23:28;100774.58;;;12.79;100.00
35507;BME280;36461;52.018;21.036;2022-07-09T03:25:54;100774.12;;;12.80;100.00
35507;BME280;36461;52.018;21.036;2022-07-09T03:28:21;100779.45;;;12.76;100.00
35507;BME280;36461;52.018;21.036;2022-07-09T03:30:47;100780.26;;;12.79;100.00
35507;BME280;36461;52.018;21.036;2022-07-09T03:33:14;100781.04;;;12.81;100.00
35507;BME280;36461;52.018;21.036;2022-07-09T03:35:40;100783.16;;;12.83;100.00
35507;BME280;36461;52.018;21.036;2022-07-09T03:38:07;100786.05;;;12.87;100.00
35507;BME280;36461;52.018;21.036;2022-07-09T03:40:34;100789.69;;;12.95;100.00
35507;BME280;36461;52.018;21.036;2022-07-09T03:43:00;100795.91;;;13.02;100.00
35507;BME280;36461;52.018;21.036;2022-07-09T03:45:27;100792.28;;;13.06;100.00
35507;BME280;36461;52.018;21.036;2022-07-09T03:47:54;100789.39;;;13.02;100.00
35507;BME280;36461;52.018;21.036;2022-07-09T03:50:20;100792.58;;;12.99;100.00
35507;BME280;36461;52.018;21.036;2022-07-09T03:52:48;100789.63;;;12.96;100.00
35507;BME280;36461;52.018;21.036;2022-07-09T03:55:15;100787.09;;;12.95;100.00
35507;BME280;36461;52.018;21.036;2022-07-09T03:57:42;100787.38;;;12.99;100.00
35507;BME280;36461;52.018;21.036;2022-07-09T04:00:09;100786.70;;;13.05;100.00
35507;BME280;36461;52.018;21.036;2022-07-09T04:02:39;100787.70;;;13.13;100.00
35507;BME280;36461;52.018;21.036;2022-07-09T04:05:07;100786.19;;;13.19;100.00
35507;BME280;36461;52.018;21.036;2022-07-09T04:07:35;100788.23;;;13.23;100.00
35507;BME280;36461;52.018;21.036;2022-07-09T04:10:02;100783.02;;;13.23;100.00
35507;BME280;36461;52.018;21.036;2022-07-09T04:12:29;100771.97;;;13.28;100.00
35507;BME280;36461;52.018;21.036;2022-07-09T04:14:56;100776.53;;;13.33;100.00
35507;BME280;36461;52.018;21.036;2022-07-09T04:17:22;100775.20;;;13.35;100.00
35507;BME280;36461;52.018;21.036;2022-07-09T04:19:49;100774.58;;;13.40;100.00
35507;BME280;36461;52.018;21.036;2022-07-09T04:22:15;100774.08;;;13.54;100.00
35507;BME280;36461;52.018;21.036;2022-07-09T04:24:42;100767.77;;;14.04;100.00
35507;BME280;36461;52.018;21.036;2022-07-09T04:27:08;100764.63;;;15.28;100.00
35507;BME280;36461;52.018;21.036;2022-07-09T04:29:35;100762.94;;;17.23;100.00
35507;BME280;36461;52.018;21.036;2022-07-09T04:32:02;100759.45;;;19.48;100.00
35507;BME280;36461;52.018;21.036;2022-07-09T04:34:29;100765.67;;;21.56;100.00
35507;BME280;36461;52.018;21.036;2022-07-09T04:36:56;100762.82;;;23.45;100.00
35507;BME280;36461;52.018;21.036;2022-07-09T04:39:22;100766.67;;;24.96;99.35
35507;BME280;36461;52.018;21.036;2022-07-09T04:41:51;100772.72;;;25.69;91.82
35507;BME280;36461;52.018;21.036;2022-07-09T04:44:17;100763.52;;;24.66;83.38
35507;BME280;36461;52.018;21.036;2022-07-09T04:46:43;100768.61;;;23.11;79.36
35507;BME280;36461;52.018;21.036;2022-07-09T04:49:10;100765.64;;;21.69;78.07
35507;BME280;36461;52.018;21.036;2022-07-09T04:51:37;100764.30;;;20.62;77.94
35507;BME280;36461;52.018;21.036;2022-07-09T04:54:04;100766.41;;;19.76;78.87
35507;BME280;36461;52.018;21.036;2022-07-09T04:56:30;100767.62;;;19.51;80.68
35507;BME280;36461;52.018;21.036;2022-07-09T04:58:57;100768.42;;;20.66;84.68
35507;BME280;36461;52.018;21.036;2022-07-09T05:01:26;100767.75;;;20.95;82.31
35507;BME280;36461;52.018;21.036;2022-07-09T05:03:53;100769.64;;;20.55;79.47
35507;BME280;36461;52.018;21.036;2022-07-09T05:06:19;100767.16;;;19.93;79.09
35507;BME280;36461;52.018;21.036;2022-07-09T05:08:46;100766.16;;;19.39;78.41
35507;BME280;36461;52.018;21.036;2022-07-09T05:11:16;100777.27;;;19.16;80.04
35507;BME280;36461;52.018;21.036;2022-07-09T05:13:43;100769.06;;;18.77;79.48
35507;BME280;36461;52.018;21.036;2022-07-09T05:16:11;100762.63;;;18.45;80.17
35507;BME280;36461;52.018;21.036;2022-07-09T05:18:38;100764.52;;;18.50;81.97
35507;BME280;36461;52.018;21.036;2022-07-09T05:21:05;100765.92;;;18.49;81.09
35507;BME280;36461;52.018;21.036;2022-07-09T05:23:32;100773.03;;;18.32;81.21
35507;BME280;36461;52.018;21.036;2022-07-09T05:25:59;100776.20;;;18.23;81.53
35507;BME280;36461;52.018;21.036;2022-07-09T05:28:26;100778.55;;;18.27;82.18
35507;BME280;36461;52.018;21.036;2022-07-09T05:30:53;100770.41;;;18.39;81.83
35507;BME280;36461;52.018;21.036;2022-07-09T05:33:20;100769.14;;;18.54;81.69
35507;BME280;36461;52.018;21.036;2022-07-09T05:35:46;100776.00;;;18.56;81.70
35507;BME280;36461;52.018;21.036;2022-07-09T05:38:13;100779.58;;;18.70;81.81
35507;BME280;36461;52.018;21.036;2022-07-09T05:40:39;100769.64;;;18.75;81.53
35507;BME280;36461;52.018;21.036;2022-07-09T05:43:05;100776.59;;;18.83;81.42
35507;BME280;36461;52.018;21.036;2022-07-09T05:45:32;100778.59;;;19.01;81.43
35507;BME280;36461;52.018;21.036;2022-07-09T05:47:58;100768.36;;;19.11;81.03
35507;BME280;36461;52.018;21.036;2022-07-09T05:50:25;100767.59;;;19.09;80.03
35507;BME280;36461;52.018;21.036;2022-07-09T05:52:52;100764.48;;;19.09;81.39
35507;BME280;36461;52.018;21.036;2022-07-09T05:55:18;100761.11;;;19.22;80.57
35507;BME280;36461;52.018;21.036;2022-07-09T05:57:46;100756.45;;;19.40;80.56
35507;BME280;36461;52.018;21.036;2022-07-09T06:00:13;100759.13;;;19.60;80.66
35507;BME280;36461;52.018;21.036;2022-07-09T06:02:40;100761.04;;;19.58;80.33
35507;BME280;36461;52.018;21.036;2022-07-09T06:05:07;100760.99;;;19.38;79.63
35507;BME280;36461;52.018;21.036;2022-07-09T06:07:34;100761.45;;;19.37;81.12
35507;BME280;36461;52.018;21.036;2022-07-09T06:10:01;100760.20;;;19.43;79.55
35507;BME280;36461;52.018;21.036;2022-07-09T06:12:27;100756.03;;;19.11;78.12
35507;BME280;36461;52.018;21.036;2022-07-09T06:14:54;100760.83;;;19.05;79.58
35507;BME280;36461;52.018;21.036;2022-07-09T06:17:20;100765.27;;;19.04;79.14
35507;BME280;36461;52.018;21.036;2022-07-09T06:19:46;100757.25;;;18.99;79.46
35507;BME280;36461;52.018;21.036;2022-07-09T06:22:13;100754.35;;;18.89;79.08
35507;BME280;36461;52.018;21.036;2022-07-09T06:24:39;100755.57;;;18.90;79.86
35507;BME280;36461;52.018;21.036;2022-07-09T06:27:06;100752.19;;;18.95;80.11
35507;BME280;36461;52.018;21.036;2022-07-09T06:29:32;100752.11;;;19.04;79.85
35507;BME280;36461;52.018;21.036;2022-07-09T06:31:59;100749.72;;;19.21;79.87
35507;BME280;36461;52.018;21.036;2022-07-09T06:34:28;100745.44;;;19.40;79.97
35507;BME280;36461;52.018;21.036;2022-07-09T06:36:54;100747.62;;;19.41;79.27
35507;BME280;36461;52.018;21.036;2022-07-09T06:39:21;100740.69;;;19.33;78.70
35507;BME280;36461;52.018;21.036;2022-07-09T06:42:07;100739.77;;;19.19;78.19
35507;BME280;36461;52.018;21.036;2022-07-09T06:44:34;100741.48;;;19.06;78.73
35507;BME280;36461;52.018;21.036;2022-07-09T06:47:02;100737.70;;;19.03;79.11
35507;BME280;36461;52.018;21.036;2022-07-09T06:49:30;100737.98;;;19.05;78.94
35507;BME280;36461;52.018;21.036;2022-07-09T06:51:57;100745.14;;;19.03;78.56
35507;BME280;36461;52.018;21.036;2022-07-09T06:54:25;100739.72;;;19.34;79.17
35507;BME280;36461;52.018;21.036;2022-07-09T06:56:51;100732.46;;;19.86;79.79
35507;BME280;36461;52.018;21.036;2022-07-09T06:59:19;100726.06;;;20.62;80.08
35507;BME280;36461;52.018;21.036;2022-07-09T07:01:48;100731.33;;;21.01;77.94
35507;BME280;36461;52.018;21.036;2022-07-09T07:04:15;100722.85;;;21.27;76.64
35507;BME280;36461;52.018;21.036;2022-07-09T07:06:41;100729.54;;;21.38;73.95
35507;BME280;36461;52.018;21.036;2022-07-09T07:09:09;100722.28;;;21.29;73.83
35507;BME280;36461;52.018;21.036;2022-07-09T07:11:36;100718.46;;;21.33;73.99
35507;BME280;36461;52.018;21.036;2022-07-09T07:14:02;100718.80;;;21.10;72.82
35507;BME280;36461;52.018;21.036;2022-07-09T07:16:29;100716.27;;;21.08;73.34
35507;BME280;36461;52.018;21.036;2022-07-09T07:18:55;100713.67;;;21.14;72.92
35507;BME280;36461;52.018;21.036;2022-07-09T07:21:22;100704.69;;;21.17;72.31
35507;BME280;36461;52.018;21.036;2022-07-09T07:23:48;100707.50;;;21.26;72.04
35507;BME280;36461;52.018;21.036;2022-07-09T07:26:15;100710.28;;;21.31;71.93
35507;BME280;36461;52.018;21.036;2022-07-09T07:28:41;100705.00;;;21.12;70.73
35507;BME280;36461;52.018;21.036;2022-07-09T07:31:09;100709.70;;;21.14;70.94
35507;BME280;36461;52.018;21.036;2022-07-09T07:33:36;100712.11;;;21.36;71.80
35507;BME280;36461;52.018;21.036;2022-07-09T07:36:05;100707.81;;;21.59;71.10
35507;BME280;36461;52.018;21.036;2022-07-09T07:38:33;100704.39;;;21.75;69.82
35507;BME280;36461;52.018;21.036;2022-07-09T07:41:03;100706.72;;;21.86;70.65
35507;BME280;36461;52.018;21.036;2022-07-09T07:43:30;100699.49;;;22.18;70.28
35507;BME280;36461;52.018;21.036;2022-07-09T07:45:57;100698.42;;;22.26;69.69
35507;BME280;36461;52.018;21.036;2022-07-09T07:48:23;100695.85;;;22.07;67.79
35507;BME280;36461;52.018;21.036;2022-07-09T07:50:52;100692.75;;;22.13;68.14
35507;BME280;36461;52.018;21.036;2022-07-09T07:53:18;100694.91;;;22.14;67.99
35507;BME280;36461;52.018;21.036;2022-07-09T07:55:45;100692.62;;;22.09;67.42
35507;BME280;36461;52.018;21.036;2022-07-09T07:58:11;100691.64;;;22.05;67.92
35507;BME280;36461;52.018;21.036;2022-07-09T08:00:38;100690.30;;;21.93;66.95
35507;BME280;36461;52.018;21.036;2022-07-09T08:03:05;100698.40;;;21.73;66.16
35507;BME280;36461;52.018;21.036;2022-07-09T08:05:31;100688.84;;;21.89;67.24
35507;BME280;36461;52.018;21.036;2022-07-09T08:07:58;100694.89;;;21.97;66.38
35507;BME280;36461;52.018;21.036;2022-07-09T08:10:25;100689.74;;;22.18;65.33
35507;BME280;36461;52.018;21.036;2022-07-09T08:12:52;100684.52;;;22.35;66.24
35507;BME280;36461;52.018;21.036;2022-07-09T08:15:19;100687.17;;;22.69;66.40
35507;BME280;36461;52.018;21.036;2022-07-09T08:17:46;100682.01;;;22.85;64.25
35507;BME280;36461;52.018;21.036;2022-07-09T08:20:13;100680.44;;;22.82;64.11
35507;BME280;36461;52.018;21.036;2022-07-09T08:22:39;100683.44;;;22.77;64.11
35507;BME280;36461;52.018;21.036;2022-07-09T08:25:07;100680.20;;;22.79;64.32
35507;BME280;36461;52.018;21.036;2022-07-09T08:27:34;100673.91;;;22.98;64.26
35507;BME280;36461;52.018;21.036;2022-07-09T08:30:00;100671.46;;;23.28;63.93
35507;BME280;36461;52.018;21.036;2022-07-09T08:32:27;100669.03;;;23.42;63.22
35507;BME280;36461;52.018;21.036;2022-07-09T08:34:55;100667.22;;;23.70;62.76
35507;BME280;36461;52.018;21.036;2022-07-09T08:37:21;100670.52;;;23.83;62.35
35507;BME280;36461;52.018;21.036;2022-07-09T08:39:47;100669.69;;;23.83;62.18
35507;BME280;36461;52.018;21.036;2022-07-09T08:42:14;100671.84;;;23.89;61.92
35507;BME280;36461;52.018;21.036;2022-07-09T08:44:40;100674.23;;;23.59;60.71
35507;BME280;36461;52.018;21.036;2022-07-09T08:47:11;100667.53;;;23.17;60.25
35507;BME280;36461;52.018;21.036;2022-07-09T08:49:38;100666.84;;;22.81;60.59
35507;BME280;36461;52.018;21.036;2022-07-09T08:52:06;100663.49;;;22.62;61.30
35507;BME280;36461;52.018;21.036;2022-07-09T08:54:35;100653.02;;;22.66;61.21
35507;BME280;36461;52.018;21.036;2022-07-09T08:57:06;100653.98;;;22.76;60.98
35507;BME280;36461;52.018;21.036;2022-07-09T08:59:33;100656.39;;;22.74;61.70
35507;BME280;36461;52.018;21.036;2022-07-09T09:02:04;100651.58;;;22.68;60.87
35507;BME280;36461;52.018;21.036;2022-07-09T09:04:32;100640.64;;;22.55;60.92
35507;BME280;36461;52.018;21.036;2022-07-09T09:07:18;100646.16;;;22.46;61.00
35507;BME280;36461;52.018;21.036;2022-07-09T09:09:46;100645.20;;;22.53;60.65
35507;BME280;36461;52.018;21.036;2022-07-09T09:12:13;100642.80;;;22.73;60.30
35507;BME280;36461;52.018;21.036;2022-07-09T09:14:48;100637.74;;;22.75;59.03
35507;BME280;36461;52.018;21.036;2022-07-09T09:17:16;100634.11;;;22.88;59.76
35507;BME280;36461;52.018;21.036;2022-07-09T09:19:43;100638.06;;;22.93;58.45
35507;BME280;36461;52.018;21.036;2022-07-09T09:22:15;100636.73;;;22.93;58.91
35507;BME280;36461;52.018;21.036;2022-07-09T09:24:48;100626.48;;;23.17;58.75
35507;BME280;36461;52.018;21.036;2022-07-09T09:27:16;100628.02;;;23.25;58.46
35507;BME280;36461;52.018;21.036;2022-07-09T09:29:50;100625.05;;;23.13;57.62
35507;BME280;36461;52.018;21.036;2022-07-09T09:32:20;100621.64;;;23.11;57.48
35507;BME280;36461;52.018;21.036;2022-07-09T09:34:49;100618.17;;;23.10;56.26
35507;BME280;36461;52.018;21.036;2022-07-09T09:37:29;100616.25;;;23.07;55.80
35507;BME280;36461;52.018;21.036;2022-07-09T09:39:56;100606.75;;;23.10;56.47
35507;BME280;36461;52.018;21.036;2022-07-09T09:42:24;100611.19;;;23.21;56.28
35507;BME280;36461;52.018;21.036;2022-07-09T09:44:54;100602.49;;;23.30;56.05
35507;BME280;36461;52.018;21.036;2022-07-09T09:47:24;100607.50;;;23.39;56.36
35507;BME280;36461;52.018;21.036;2022-07-09T09:49:53;100613.26;;;23.44;55.39
35507;BME280;36461;52.018;21.036;2022-07-09T09:52:21;100611.55;;;23.16;56.11
35507;BME280;36461;52.018;21.036;2022-07-09T09:54:50;100614.13;;;22.89;56.08
35507;BME280;36461;52.018;21.036;2022-07-09T09:57:18;100607.72;;;22.48;55.86
35507;BME280;36461;52.018;21.036;2022-07-09T09:59:49;100606.95;;;22.23;56.40
35507;BME280;36461;52.018;21.036;2022-07-09T10:02:19;100603.70;;;22.08;56.77
35507;BME280;36461;52.018;21.036;2022-07-09T10:04:47;100602.00;;;22.07;57.15
35507;BME280;36461;52.018;21.036;2022-07-09T10:07:14;100598.16;;;22.11;57.93
35507;BME280;36461;52.018;21.036;2022-07-09T10:09:57;100606.23;;;22.27;58.35
35507;BME280;36461;52.018;21.036;2022-07-09T10:12:32;100594.25;;;22.45;58.81
35507;BME280;36461;52.018;21.036;2022-07-09T10:17:51;100574.08;;;22.83;58.19
35507;BME280;36461;52.018;21.036;2022-07-09T10:20:17;100567.55;;;22.98;56.35
35507;BME280;36461;52.018;21.036;2022-07-09T10:22:48;100561.27;;;23.05;55.85
35507;BME280;36461;52.018;21.036;2022-07-09T10:25:29;100566.67;;;23.15;53.64
35507;BME280;36461;52.018;21.036;2022-07-09T10:27:56;100560.58;;;23.29;54.12
35507;BME280;36461;52.018;21.036;2022-07-09T10:30:28;100554.98;;;23.59;53.57
35507;BME280;36461;52.018;21.036;2022-07-09T10:33:05;100555.66;;;23.88;53.41
35507;BME280;36461;52.018;21.036;2022-07-09T10:38:17;100566.86;;;24.07;53.04
35507;BME280;36461;52.018;21.036;2022-07-09T10:40:56;100563.25;;;23.72;52.20
35507;BME280;36461;52.018;21.036;2022-07-09T10:43:41;100565.77;;;23.52;52.51
35507;BME280;36461;52.018;21.036;2022-07-09T10:46:14;100566.61;;;23.32;52.66
35507;BME280;36461;52.018;21.036;2022-07-09T10:48:42;100561.73;;;23.10;52.77
35507;BME280;36461;52.018;21.036;2022-07-09T10:51:22;100560.93;;;22.98;53.19
35507;BME280;36461;52.018;21.036;2022-07-09T10:53:49;100560.44;;;22.99;53.73
35507;BME280;36461;52.018;21.036;2022-07-09T10:56:17;100564.27;;;23.00;53.78
35507;BME280;36461;52.018;21.036;2022-07-09T10:58:46;100564.64;;;23.01;53.86
35507;BME280;36461;52.018;21.036;2022-07-09T11:01:23;100557.79;;;22.99;53.61
35507;BME280;36461;52.018;21.036;2022-07-09T11:03:51;100562.66;;;23.20;53.84
35507;BME280;36461;52.018;21.036;2022-07-09T11:06:18;100558.45;;;23.44;53.50
35507;BME280;36461;52.018;21.036;2022-07-09T11:08:45;100552.16;;;23.51;53.36
35507;BME280;36461;52.018;21.036;2022-07-09T11:11:11;100547.58;;;23.53;51.47
35507;BME280;36461;52.018;21.036;2022-07-09T11:13:38;100553.09;;;23.35;51.56
35507;BME280;36461;52.018;21.036;2022-07-09T11:16:06;100544.86;;;23.22;51.78
35507;BME280;36461;52.018;21.036;2022-07-09T11:18:33;100540.16;;;23.26;51.37
35507;BME280;36461;52.018;21.036;2022-07-09T11:20:59;100540.67;;;23.35;52.05
35507;BME280;36461;52.018;21.036;2022-07-09T11:23:26;100537.66;;;23.40;51.78
35507;BME280;36461;52.018;21.036;2022-07-09T11:25:52;100535.83;;;23.46;51.67
35507;BME280;36461;52.018;21.036;2022-07-09T11:28:24;100529.03;;;23.53;51.51
35507;BME280;36461;52.018;21.036;2022-07-09T11:31:02;100531.03;;;23.61;50.54
35507;BME280;36461;52.018;21.036;2022-07-09T11:33:30;100533.91;;;23.63;50.86
35507;BME280;36461;52.018;21.036;2022-07-09T11:36:16;100538.58;;;23.50;48.64
35507;BME280;36461;52.018;21.036;2022-07-09T11:38:52;100531.77;;;23.36;48.19
35507;BME280;36461;52.018;21.036;2022-07-09T11:41:20;100529.98;;;23.37;48.29
35507;BME280;36461;52.018;21.036;2022-07-09T11:43:49;100526.43;;;23.42;49.17
35507;BME280;36461;52.018;21.036;2022-07-09T11:46:20;100526.70;;;23.39;47.92
35507;BME280;36461;52.018;21.036;2022-07-09T11:48:53;100522.04;;;23.31;47.24
35507;BME280;36461;52.018;21.036;2022-07-09T11:51:30;100521.30;;;23.35;47.08
35507;BME280;36461;52.018;21.036;2022-07-09T11:53:57;100521.80;;;23.34;46.39
35507;BME280;36461;52.018;21.036;2022-07-09T11:56:24;100514.27;;;23.45;46.52
35507;BME280;36461;52.018;21.036;2022-07-09T11:58:52;100523.64;;;23.65;46.34
35507;BME280;36461;52.018;21.036;2022-07-09T12:01:24;100524.63;;;23.79;46.71
35507;BME280;36461;52.018;21.036;2022-07-09T12:03:52;100521.44;;;23.91;45.36
35507;BME280;36461;52.018;21.036;2022-07-09T12:06:18;100510.37;;;24.17;46.00
35507;BME280;36461;52.018;21.036;2022-07-09T12:08:44;100508.30;;;24.45;44.59
35507;BME280;36461;52.018;21.036;2022-07-09T12:11:10;100505.50;;;24.57;45.03
35507;BME280;36461;52.018;21.036;2022-07-09T12:13:36;100499.83;;;24.71;45.04
35507;BME280;36461;52.018;21.036;2022-07-09T12:16:03;100493.12;;;24.77;44.86
35507;BME280;36461;52.018;21.036;2022-07-09T12:18:30;100493.33;;;24.79;45.06
35507;BME280;36461;52.018;21.036;2022-07-09T12:20:56;100486.61;;;24.95;45.41
35507;BME280;36461;52.018;21.036;2022-07-09T12:23:23;100485.00;;;25.08;43.45
35507;BME280;36461;52.018;21.036;2022-07-09T12:25:50;100478.28;;;25.13;42.87
35507;BME280;36461;52.018;21.036;2022-07-09T12:28:17;100485.52;;;25.31;42.91
35507;BME280;36461;52.018;21.036;2022-07-09T12:30:43;100479.95;;;25.58;42.42
35507;BME280;36461;52.018;21.036;2022-07-09T12:33:10;100468.28;;;25.78;42.00
35507;BME280;36461;52.018;21.036;2022-07-09T12:35:36;100465.36;;;26.00;41.18
35507;BME280;36461;52.018;21.036;2022-07-09T12:38:03;100465.04;;;25.99;41.54
35507;BME280;36461;52.018;21.036;2022-07-09T12:40:29;100461.22;;;26.11;41.50
35507;BME280;36461;52.018;21.036;2022-07-09T12:42:56;100469.05;;;26.12;40.97
35507;BME280;36461;52.018;21.036;2022-07-09T12:45:22;100467.30;;;25.93;41.06